createdAt,value
2022-09-23T00:01:20.793Z,12.38
2022-09-23T00:03:49.548Z,9.68
2022-09-23T00:06:19.831Z,10.40
2022-09-23T00:08:49.765Z,10.50
2022-09-23T00:11:20.008Z,10.02
2022-09-23T00:13:49.702Z,9.13
2022-09-23T00:16:21.521Z,9.32
2022-09-23T00:18:51.079Z,8.63
2022-09-23T00:21:20.400Z,7.97
2022-09-23T00:23:48.563Z,7.68
2022-09-23T00:26:19.188Z,7.43
2022-09-23T00:28:47.100Z,7.38
2022-09-23T00:31:18.071Z,6.88
2022-09-23T00:33:45.467Z,6.85
2022-09-23T00:36:16.536Z,7.07
2022-09-23T00:38:45.425Z,5.68
2022-09-23T00:41:16.578Z,6.72
2022-09-23T00:43:48.725Z,6.25
2022-09-23T00:46:27.868Z,6.90
2022-09-23T00:49:03.304Z,5.43
2022-09-23T00:51:36.154Z,6.47
2022-09-23T00:54:04.095Z,6.72
2022-09-23T00:56:33.078Z,5.97
2022-09-23T00:59:01.448Z,7.07
2022-09-23T01:01:28.981Z,6.50
2022-09-23T01:03:57.916Z,8.93
2022-09-23T01:06:25.454Z,6.95
2022-09-23T01:08:53.199Z,7.05
2022-09-23T01:11:46.043Z,8.45
2022-09-23T01:22:31.308Z,10.10
2022-09-23T01:30:36.681Z,7.88
2022-09-23T01:33:13.525Z,9.07
2022-09-23T01:36:19.319Z,8.60
2022-09-23T01:39:11.527Z,7.28
2022-09-23T01:44:29.623Z,9.10
2022-09-23T01:47:08.374Z,8.90
2022-09-23T01:52:28.786Z,9.38
2022-09-23T01:55:08.985Z,8.35
2022-09-23T01:57:43.930Z,8.60
2022-09-23T02:00:15.514Z,7.97
2022-09-23T02:02:56.520Z,7.80
2022-09-23T02:08:15.004Z,10.97
2022-09-23T02:10:56.420Z,9.10
2022-09-23T02:13:30.807Z,7.28
2022-09-23T02:16:02.470Z,6.80
2022-09-23T02:21:06.605Z,6.72
2022-09-23T02:23:42.745Z,8.50
2022-09-23T02:26:35.809Z,6.95
2022-09-23T02:31:53.934Z,13.23
2022-09-23T02:34:43.333Z,18.27
2022-09-23T02:40:23.794Z,13.88
2022-09-23T02:45:28.811Z,14.27
2022-09-23T02:48:04.229Z,15.90
2022-09-23T02:50:32.867Z,18.15
2022-09-23T02:53:01.366Z,14.27
2022-09-23T02:55:33.774Z,14.15
2022-09-23T02:58:03.329Z,15.18
2022-09-23T03:00:57.460Z,14.07
2022-09-23T03:06:16.408Z,15.10
2022-09-23T03:08:51.395Z,18.05
2022-09-23T03:11:20.838Z,15.13
2022-09-23T03:14:17.985Z,16.67
2022-09-23T03:16:58.599Z,24.67
2022-09-23T03:19:35.303Z,24.67
2022-09-23T03:25:07.389Z,24.20
2022-09-23T03:27:36.865Z,23.65
2022-09-23T03:30:07.130Z,23.45
2022-09-23T03:32:36.456Z,20.15
2022-09-23T03:35:05.783Z,20.70
2022-09-23T03:37:38.682Z,18.70
2022-09-23T03:40:18.406Z,19.85
2022-09-23T03:42:49.130Z,20.08
2022-09-23T03:45:21.849Z,18.15
2022-09-23T03:47:49.220Z,19.13
2022-09-23T03:50:17.739Z,18.95
2022-09-23T03:52:45.315Z,17.15
2022-09-23T03:55:12.673Z,18.08
2022-09-23T03:57:40.025Z,16.63
2022-09-23T04:00:09.037Z,16.58
2022-09-23T04:02:40.120Z,16.17
2022-09-23T04:05:08.728Z,16.27
2022-09-23T04:07:35.980Z,13.68
2022-09-23T04:10:05.186Z,14.27
2022-09-23T04:12:32.437Z,13.40
2022-09-23T04:15:00.363Z,13.48
2022-09-23T04:17:27.660Z,12.75
2022-09-23T04:19:55.061Z,13.10
2022-09-23T04:22:22.562Z,13.88
2022-09-23T04:24:49.917Z,14.35
2022-09-23T04:27:17.246Z,14.25
2022-09-23T04:29:44.885Z,12.85
2022-09-23T04:32:12.193Z,12.50
2022-09-23T04:34:39.521Z,11.48
2022-09-23T04:37:06.924Z,11.05
2022-09-23T04:39:34.322Z,9.95
2022-09-23T04:42:01.625Z,9.70
2022-09-23T04:44:29.827Z,8.75
2022-09-23T04:46:57.237Z,7.90
2022-09-23T04:49:24.802Z,8.73
2022-09-23T04:51:52.074Z,8.77
2022-09-23T04:54:19.432Z,8.93
2022-09-23T04:56:46.639Z,8.52
2022-09-23T04:59:13.983Z,6.80
2022-09-23T05:01:41.854Z,8.38
2022-09-23T05:04:14.169Z,8.23
2022-09-23T05:06:44.213Z,9.02
2022-09-23T05:09:16.301Z,7.25
2022-09-23T05:11:44.220Z,8.25
2022-09-23T05:14:12.367Z,7.20
2022-09-23T05:16:39.711Z,7.20
2022-09-23T05:19:07.165Z,7.45
2022-09-23T05:21:34.483Z,7.43
2022-09-23T05:24:02.300Z,6.97
2022-09-23T05:26:32.173Z,6.82
2022-09-23T05:29:00.547Z,6.75
2022-09-23T05:31:30.415Z,7.43
2022-09-23T05:34:00.784Z,6.70
2022-09-23T05:36:32.122Z,7.38
2022-09-23T05:39:03.987Z,7.47
2022-09-23T05:41:31.512Z,6.43
2022-09-23T05:44:01.874Z,7.68
2022-09-23T05:46:32.422Z,8.35
2022-09-23T05:49:02.995Z,7.95
2022-09-23T05:51:32.101Z,7.22
2022-09-23T05:54:00.780Z,7.38
2022-09-23T05:56:29.503Z,7.13
2022-09-23T05:58:59.437Z,6.78
2022-09-23T06:01:29.162Z,7.47
2022-09-23T06:03:58.591Z,7.97
2022-09-23T06:06:30.532Z,7.57
2022-09-23T06:08:59.561Z,6.88
2022-09-23T06:11:30.141Z,7.40
2022-09-23T06:14:02.546Z,6.90
2022-09-23T06:16:32.545Z,7.07
2022-09-23T06:19:06.469Z,7.32
2022-09-23T06:21:36.577Z,7.95
2022-09-23T06:24:05.348Z,6.97
2022-09-23T06:26:35.450Z,6.38
2022-09-23T06:29:03.932Z,6.88
2022-09-23T06:31:32.354Z,6.45
2022-09-23T06:34:09.755Z,5.97
2022-09-23T06:36:44.058Z,6.40
2022-09-23T06:39:13.831Z,5.65
2022-09-23T06:41:41.313Z,4.55
2022-09-23T06:44:14.109Z,4.70
2022-09-23T06:46:41.915Z,4.95
2022-09-23T06:49:09.558Z,4.53
2022-09-23T06:51:36.946Z,4.30
2022-09-23T06:54:04.741Z,5.03
2022-09-23T06:56:36.339Z,5.10
2022-09-23T06:59:06.872Z,4.70
2022-09-23T07:01:35.341Z,4.35
2022-09-23T07:04:02.856Z,3.90
2022-09-23T07:06:30.259Z,4.35
2022-09-23T07:08:57.781Z,4.72
2022-09-23T07:11:25.067Z,3.42
2022-09-23T07:13:52.657Z,3.70
2022-09-23T07:16:20.091Z,4.30
2022-09-23T07:18:47.617Z,3.70
2022-09-23T07:21:18.015Z,3.30
2022-09-23T07:23:47.774Z,3.22
2022-09-23T07:26:16.542Z,3.58
2022-09-23T07:28:43.900Z,3.25
2022-09-23T07:31:14.697Z,3.30
2022-09-23T07:33:44.465Z,3.22
2022-09-23T07:36:18.248Z,3.47
2022-09-23T07:38:47.576Z,3.30
2022-09-23T07:41:18.024Z,2.33
2022-09-23T07:43:46.547Z,2.72
2022-09-23T07:46:17.635Z,2.35
2022-09-23T07:48:46.149Z,2.30
2022-09-23T07:51:20.343Z,2.33
2022-09-23T07:53:49.361Z,2.22
2022-09-23T07:56:19.333Z,1.88
2022-09-23T07:59:00.429Z,2.30
2022-09-23T08:01:34.473Z,2.00
2022-09-23T08:04:10.662Z,1.70
2022-09-23T08:06:45.637Z,2.10
2022-09-23T08:09:13.278Z,2.38
2022-09-23T08:11:42.381Z,2.03
2022-09-23T08:14:12.647Z,1.98
2022-09-23T08:16:41.186Z,1.80
2022-09-23T08:19:08.714Z,2.28
2022-09-23T08:21:37.909Z,1.70
2022-09-23T08:24:07.863Z,1.63
2022-09-23T08:26:36.105Z,2.00
2022-09-23T08:29:03.763Z,1.85
2022-09-23T08:31:31.400Z,1.48
2022-09-23T08:33:59.801Z,1.73
2022-09-23T08:36:27.606Z,1.52
2022-09-23T08:38:55.762Z,1.67
2022-09-23T08:44:04.863Z,2.05
2022-09-23T08:46:37.961Z,1.55
2022-09-23T08:49:07.709Z,2.22
2022-09-23T08:51:41.451Z,1.98
2022-09-23T08:54:13.270Z,2.13
2022-09-23T08:56:44.597Z,2.47
2022-09-23T08:59:21.534Z,2.30
2022-09-23T09:01:54.607Z,2.45
2022-09-23T09:07:37.960Z,2.38
2022-09-23T09:23:23.569Z,1.92
2022-09-23T09:26:02.971Z,1.92
2022-09-23T09:28:38.334Z,2.13
2022-09-23T15:15:48.416Z,4.65
2022-09-23T15:18:24.019Z,4.35
2022-09-23T15:20:54.499Z,4.53
2022-09-23T15:26:18.426Z,4.60
2022-09-23T15:28:47.034Z,4.88
2022-09-23T15:31:16.396Z,4.97
2022-09-23T15:33:47.837Z,5.38
2022-09-23T15:36:19.401Z,4.90
2022-09-23T15:38:47.758Z,5.32
2022-09-23T15:41:16.690Z,4.35
2022-09-23T15:43:44.610Z,4.32
2022-09-23T15:46:18.928Z,5.00
2022-09-23T15:51:32.627Z,4.72
2022-09-23T15:54:05.307Z,4.95
2022-09-23T15:56:34.666Z,5.35
2022-09-23T15:59:02.057Z,5.15
2022-09-23T16:01:32.182Z,4.53
2022-09-23T16:04:01.489Z,5.40
2022-09-23T16:06:29.563Z,5.47
2022-09-23T16:08:57.294Z,6.35
2022-09-23T16:11:32.037Z,5.72
2022-09-23T16:14:00.940Z,6.20
2022-09-23T16:16:28.746Z,6.47
2022-09-23T16:18:56.574Z,6.70
2022-09-23T16:21:26.756Z,6.00
2022-09-23T16:23:55.191Z,5.93
2022-09-23T16:26:25.994Z,6.20
2022-09-23T16:28:55.241Z,6.25
2022-09-23T16:31:25.917Z,6.28
2022-09-23T16:33:54.049Z,6.75
2022-09-23T16:36:31.507Z,6.90
2022-09-23T16:39:01.137Z,6.78
2022-09-23T16:41:31.719Z,6.68
2022-09-23T16:44:01.263Z,6.00
2022-09-23T16:46:29.520Z,6.20
2022-09-23T16:48:57.865Z,6.82
2022-09-23T17:54:04.353Z,7.97
2022-09-23T17:56:37.447Z,6.30
2022-09-23T17:59:05.396Z,5.25
2022-09-23T18:01:33.269Z,5.95
2022-09-23T18:04:02.135Z,6.55
2022-09-23T18:06:40.028Z,6.57
2022-09-23T18:09:10.336Z,6.05
2022-09-23T18:11:40.843Z,5.90
2022-09-23T18:14:14.269Z,6.43
2022-09-23T18:16:44.435Z,6.07
2022-09-23T18:19:15.240Z,6.53
2022-09-23T18:21:45.195Z,5.63
2022-09-23T18:24:32.464Z,6.15
2022-09-23T18:27:01.324Z,5.82
2022-09-23T18:29:29.125Z,6.13
2022-09-23T18:31:57.103Z,5.68
2022-09-23T18:34:24.605Z,5.40
2022-09-23T18:36:52.124Z,6.25
2022-09-23T18:39:23.701Z,6.07
2022-09-23T18:41:52.855Z,6.38
2022-09-23T18:44:20.474Z,6.28
2022-09-23T18:46:48.185Z,6.05
2022-09-23T18:49:35.505Z,5.18
2022-09-23T18:52:03.006Z,5.57
2022-09-23T18:54:30.782Z,5.68
2022-09-23T18:56:59.700Z,6.63
2022-09-23T18:59:30.188Z,5.90
2022-09-23T19:01:58.286Z,5.47
2022-09-23T19:04:27.457Z,5.50
2022-09-23T19:06:56.850Z,5.65
2022-09-23T19:09:24.733Z,5.40
2022-09-23T19:11:53.095Z,5.50
2022-09-23T19:14:21.044Z,4.78
2022-09-23T19:16:49.816Z,4.88
2022-09-23T19:19:17.542Z,5.63
2022-09-23T19:21:45.139Z,5.18
2022-09-23T19:24:16.339Z,4.93
2022-09-23T19:26:44.435Z,5.15
2022-09-23T19:29:16.556Z,5.45
2022-09-23T19:31:44.415Z,5.13
2022-09-23T19:34:15.187Z,4.78
2022-09-23T19:36:44.819Z,5.40
2022-09-23T19:39:22.601Z,5.38
2022-09-23T19:41:51.007Z,5.63
2022-09-23T19:44:20.375Z,5.75
2022-09-23T19:46:55.067Z,4.95
2022-09-23T19:49:25.005Z,4.95
2022-09-23T19:51:56.163Z,5.35
2022-09-23T19:54:26.869Z,4.53
2022-09-23T19:56:54.808Z,5.10
2022-09-23T19:59:22.225Z,4.30
2022-09-23T20:01:49.693Z,4.53
2022-09-23T20:04:17.553Z,4.93
2022-09-23T20:06:46.257Z,4.88
2022-09-23T20:09:14.083Z,4.65
2022-09-23T20:11:43.353Z,4.50
2022-09-23T20:14:12.020Z,4.93
2022-09-23T20:16:39.420Z,4.25
2022-09-23T20:19:06.921Z,4.75
2022-09-23T20:21:34.641Z,5.07
2022-09-23T20:24:05.515Z,5.07
2022-09-23T20:26:52.841Z,4.97
2022-09-23T20:29:20.190Z,4.90
2022-09-23T20:31:47.949Z,4.85
2022-09-23T20:34:15.413Z,4.78
2022-09-23T20:36:42.933Z,5.32
2022-09-23T20:39:10.561Z,4.60
2022-09-23T20:41:39.558Z,4.85
2022-09-23T20:44:10.583Z,4.45
2022-09-23T20:46:38.084Z,5.18
2022-09-23T20:49:09.020Z,4.30
2022-09-23T20:51:37.376Z,4.70
2022-09-23T20:54:04.804Z,4.72
2022-09-23T20:56:32.268Z,4.35
2022-09-23T20:59:01.195Z,5.00
2022-09-23T21:01:28.821Z,4.72
2022-09-23T21:03:56.213Z,5.38
2022-09-23T21:06:26.315Z,4.50
2022-09-23T21:08:55.174Z,4.80
2022-09-23T21:11:22.965Z,5.35
2022-09-23T21:13:51.731Z,5.68
2022-09-23T21:16:22.794Z,4.63
2022-09-23T21:18:51.863Z,5.35
2022-09-23T21:21:22.360Z,4.85
2022-09-23T21:23:50.883Z,5.65
2022-09-23T21:26:23.569Z,4.80
2022-09-23T21:28:53.390Z,4.95
2022-09-23T21:31:23.821Z,4.45
2022-09-23T21:33:54.222Z,4.40
2022-09-23T21:36:21.945Z,4.43
2022-09-23T21:38:49.774Z,5.15
2022-09-23T21:41:17.973Z,4.20
2022-09-23T21:43:45.849Z,4.03
2022-09-23T21:46:14.922Z,4.10
2022-09-23T21:48:43.093Z,5.38
2022-09-23T21:51:13.565Z,4.68
2022-09-23T21:53:42.538Z,5.78
2022-09-23T21:56:20.499Z,4.70
2022-09-23T21:58:49.168Z,4.70
2022-09-23T22:01:19.491Z,5.70
2022-09-23T22:06:32.701Z,6.88
2022-09-23T22:09:02.358Z,6.78
2022-09-23T22:11:51.934Z,7.13
2022-09-23T22:14:20.958Z,6.25
2022-09-23T22:16:48.253Z,6.68
2022-09-23T22:19:15.818Z,6.70
2022-09-23T22:21:45.653Z,5.75
2022-09-23T22:24:13.788Z,6.40
2022-09-23T22:26:43.069Z,6.00
2022-09-23T22:29:33.649Z,6.07
2022-09-23T22:32:22.430Z,6.20
2022-09-23T22:34:51.482Z,5.93
2022-09-23T22:37:21.850Z,5.80
2022-09-23T22:39:49.266Z,5.30
2022-09-23T22:42:16.517Z,5.50
2022-09-23T22:44:43.744Z,5.53
2022-09-23T22:47:11.192Z,6.00
2022-09-23T22:49:38.562Z,5.75
2022-09-23T22:52:11.479Z,5.85
2022-09-23T22:54:38.845Z,5.57
2022-09-23T22:57:08.491Z,5.50
2022-09-23T22:59:37.164Z,4.97
2022-09-23T23:02:05.308Z,5.70
2022-09-23T23:04:34.050Z,5.70
2022-09-23T23:07:01.358Z,5.38
2022-09-23T23:09:28.552Z,5.22
2022-09-23T23:11:55.820Z,5.22
2022-09-23T23:14:23.041Z,4.65
2022-09-23T23:16:50.421Z,4.95
2022-09-23T23:19:19.440Z,4.88
2022-09-23T23:21:46.791Z,5.03
2022-09-23T23:24:19.080Z,4.85
2022-09-23T23:26:46.902Z,3.80
2022-09-23T23:29:16.285Z,4.03
2022-09-23T23:31:44.599Z,4.15
2022-09-23T23:34:14.767Z,4.03
2022-09-23T23:36:43.811Z,3.65
2022-09-23T23:39:11.488Z,3.45
2022-09-23T23:41:40.334Z,3.95
2022-09-23T23:44:08.072Z,3.40
2022-09-23T23:46:37.464Z,3.47
2022-09-23T23:49:05.336Z,3.20
2022-09-23T23:51:32.792Z,3.42
2022-09-23T23:54:00.386Z,3.30
2022-09-23T23:56:28.155Z,3.40
2022-09-23T23:58:58.387Z,3.92
